sensor_id;sensor_type;location;lat;lon;timestamp;pressure;altitude;pressure_sealevel;temperature;humidity
46506;BME280;32220;49.808;9.968;2023-03-21T00:01:49;99167.66;;;11.27;53.33
46506;BME280;32220;49.808;9.968;2023-03-21T00:04:17;99146.84;;;11.21;53.24
46506;BME280;32220;49.808;9.968;2023-03-21T00:06:45;99149.41;;;11.22;53.33
46506;BME280;32220;49.808;9.968;2023-03-21T00:09:13;99158.50;;;11.32;53.15
46506;BME280;32220;49.808;9.968;2023-03-21T00:11:42;99159.38;;;11.33;53.46
46506;BME280;32220;49.808;9.968;2023-03-21T00:14:10;99155.94;;;11.31;53.48
46506;BME280;32220;49.808;9.968;2023-03-21T00:16:39;99152.44;;;11.30;53.40
46506;BME280;32220;49.808;9.968;2023-03-21T00:19:08;99149.78;;;11.30;53.45
46506;BME280;32220;49.808;9.968;2023-03-21T00:21:37;99150.66;;;11.31;53.62
46506;BME280;32220;49.808;9.968;2023-03-21T00:24:08;99132.66;;;11.22;53.58
46506;BME280;32220;49.808;9.968;2023-03-21T00:26:36;99140.44;;;11.25;53.88
46506;BME280;32220;49.808;9.968;2023-03-21T00:29:06;99147.22;;;11.29;54.10
46506;BME280;32220;49.808;9.968;2023-03-21T00:31:33;99119.84;;;11.14;53.59
46506;BME280;32220;49.808;9.968;2023-03-21T00:34:01;99131.22;;;11.16;53.99
46506;BME280;32220;49.808;9.968;2023-03-21T00:36:30;99138.72;;;11.24;53.97
46506;BME280;32220;49.808;9.968;2023-03-21T00:38:58;99137.97;;;11.22;53.85
46506;BME280;32220;49.808;9.968;2023-03-21T00:41:27;99102.88;;;11.02;54.17
46506;BME280;32220;49.808;9.968;2023-03-21T00:43:54;99132.06;;;11.16;54.42
46506;BME280;32220;49.808;9.968;2023-03-21T00:46:24;99123.56;;;11.11;54.49
46506;BME280;32220;49.808;9.968;2023-03-21T00:48:51;99114.66;;;11.12;54.25
46506;BME280;32220;49.808;9.968;2023-03-21T00:51:22;99121.63;;;11.13;54.50
46506;BME280;32220;49.808;9.968;2023-03-21T00:53:53;99102.88;;;11.02;54.56
46506;BME280;32220;49.808;9.968;2023-03-21T00:56:21;99102.03;;;11.02;54.29
46506;BME280;32220;49.808;9.968;2023-03-21T00:58:49;99113.91;;;11.10;54.53
46506;BME280;32220;49.808;9.968;2023-03-21T01:01:17;99110.31;;;11.11;54.43
46506;BME280;32220;49.808;9.968;2023-03-21T01:03:47;99110.19;;;11.13;54.53
46506;BME280;32220;49.808;9.968;2023-03-21T01:06:17;99093.13;;;11.03;54.31
46506;BME280;32220;49.808;9.968;2023-03-21T01:08:55;99096.28;;;11.09;54.28
46506;BME280;32220;49.808;9.968;2023-03-21T01:11:25;99092.03;;;11.07;53.97
46506;BME280;32220;49.808;9.968;2023-03-21T01:13:54;99103.00;;;11.15;54.08
46506;BME280;32220;49.808;9.968;2023-03-21T01:16:23;99104.25;;;11.09;53.95
46506;BME280;32220;49.808;9.968;2023-03-21T01:18:52;99101.50;;;11.11;54.38
46506;BME280;32220;49.808;9.968;2023-03-21T01:21:21;99106.13;;;11.07;54.13
46506;BME280;32220;49.808;9.968;2023-03-21T01:23:49;99102.78;;;11.04;54.55
46506;BME280;32220;49.808;9.968;2023-03-21T01:26:18;99110.84;;;11.02;54.14
46506;BME280;32220;49.808;9.968;2023-03-21T01:28:46;99106.47;;;11.01;54.10
46506;BME280;32220;49.808;9.968;2023-03-21T01:31:15;99101.38;;;10.98;54.26
46506;BME280;32220;49.808;9.968;2023-03-21T01:33:44;99093.63;;;10.95;54.54
46506;BME280;32220;49.808;9.968;2023-03-21T01:36:17;99098.06;;;10.95;54.47
46506;BME280;32220;49.808;9.968;2023-03-21T01:38:48;99096.63;;;10.89;54.25
46506;BME280;32220;49.808;9.968;2023-03-21T01:41:20;99093.50;;;10.83;54.80
46506;BME280;32220;49.808;9.968;2023-03-21T01:43:51;99093.19;;;10.73;54.88
46506;BME280;32220;49.808;9.968;2023-03-21T01:46:38;99089.19;;;10.66;55.07
46506;BME280;32220;49.808;9.968;2023-03-21T01:49:14;99091.44;;;10.58;55.14
46506;BME280;32220;49.808;9.968;2023-03-21T01:51:50;99085.63;;;10.51;55.28
46506;BME280;32220;49.808;9.968;2023-03-21T01:54:23;99089.50;;;10.46;55.90
46506;BME280;32220;49.808;9.968;2023-03-21T01:56:55;99086.63;;;10.34;55.92
46506;BME280;32220;49.808;9.968;2023-03-21T01:59:27;99083.31;;;10.31;55.64
46506;BME280;32220;49.808;9.968;2023-03-21T02:02:16;99087.06;;;10.27;56.01
46506;BME280;32220;49.808;9.968;2023-03-21T02:05:02;99089.22;;;10.20;56.02
46506;BME280;32220;49.808;9.968;2023-03-21T02:07:33;99073.94;;;10.09;56.45
46506;BME280;32220;49.808;9.968;2023-03-21T02:10:08;99076.22;;;10.16;56.70
46506;BME280;32220;49.808;9.968;2023-03-21T02:12:40;99068.34;;;10.14;56.37
46506;BME280;32220;49.808;9.968;2023-03-21T02:15:10;99073.75;;;10.13;56.56
46506;BME280;32220;49.808;9.968;2023-03-21T02:18:07;99071.38;;;10.08;56.47
46506;BME280;32220;49.808;9.968;2023-03-21T02:27:08;99049.97;;;9.97;58.22
46506;BME280;32220;49.808;9.968;2023-03-21T02:30:09;99033.69;;;9.89;58.38
46506;BME280;32220;49.808;9.968;2023-03-21T02:33:01;99045.94;;;9.90;58.13
46506;BME280;32220;49.808;9.968;2023-03-21T02:35:42;99028.22;;;9.76;58.15
46506;BME280;32220;49.808;9.968;2023-03-21T02:38:17;99036.56;;;9.84;58.76
46506;BME280;32220;49.808;9.968;2023-03-21T02:40:50;99028.22;;;9.76;58.72
46506;BME280;32220;49.808;9.968;2023-03-21T02:43:27;99025.47;;;9.78;58.87
46506;BME280;32220;49.808;9.968;2023-03-21T02:46:00;99025.84;;;9.71;58.97
46506;BME280;32220;49.808;9.968;2023-03-21T02:48:34;99034.28;;;9.62;58.60
46506;BME280;32220;49.808;9.968;2023-03-21T02:51:06;99042.38;;;9.59;58.61
46506;BME280;32220;49.808;9.968;2023-03-21T02:53:40;99039.13;;;9.54;58.66
46506;BME280;32220;49.808;9.968;2023-03-21T02:56:11;99037.63;;;9.50;58.41
46506;BME280;32220;49.808;9.968;2023-03-21T02:58:44;99041.97;;;9.51;58.25
46506;BME280;32220;49.808;9.968;2023-03-21T03:01:13;99038.56;;;9.49;58.19
46506;BME280;32220;49.808;9.968;2023-03-21T03:03:45;99030.00;;;9.44;58.54
46506;BME280;32220;49.808;9.968;2023-03-21T03:06:17;99036.59;;;9.37;58.39
46506;BME280;32220;49.808;9.968;2023-03-21T03:08:58;99007.06;;;9.13;58.96
46506;BME280;32220;49.808;9.968;2023-03-21T03:11:33;99033.41;;;9.15;58.62
46506;BME280;32220;49.808;9.968;2023-03-21T03:14:11;99022.72;;;9.00;59.26
46506;BME280;32220;49.808;9.968;2023-03-21T03:16:48;99028.16;;;8.97;59.20
46506;BME280;32220;49.808;9.968;2023-03-21T03:19:24;99029.41;;;8.90;59.66
46506;BME280;32220;49.808;9.968;2023-03-21T03:21:57;99021.97;;;8.81;59.73
46506;BME280;32220;49.808;9.968;2023-03-21T03:24:30;99011.28;;;8.67;59.66
46506;BME280;32220;49.808;9.968;2023-03-21T03:27:01;99029.59;;;8.70;59.74
46506;BME280;32220;49.808;9.968;2023-03-21T03:29:33;99017.03;;;8.58;60.01
46506;BME280;32220;49.808;9.968;2023-03-21T03:32:07;99018.91;;;8.56;60.51
46506;BME280;32220;49.808;9.968;2023-03-21T03:34:42;99018.47;;;8.48;60.63
46506;BME280;32220;49.808;9.968;2023-03-21T03:37:13;98987.94;;;8.25;60.60
46506;BME280;32220;49.808;9.968;2023-03-21T03:39:46;99012.16;;;8.33;61.37
46506;BME280;32220;49.808;9.968;2023-03-21T03:42:20;99016.88;;;8.26;61.05
46506;BME280;32220;49.808;9.968;2023-03-21T03:44:56;99012.06;;;8.17;61.13
46506;BME280;32220;49.808;9.968;2023-03-21T03:47:28;98998.41;;;8.09;60.98
46506;BME280;32220;49.808;9.968;2023-03-21T03:50:03;99020.88;;;8.16;61.31
46506;BME280;32220;49.808;9.968;2023-03-21T03:52:37;98996.09;;;8.03;61.50
46506;BME280;32220;49.808;9.968;2023-03-21T03:55:13;99008.03;;;8.10;61.45
46506;BME280;32220;49.808;9.968;2023-03-21T03:57:45;99015.16;;;8.08;61.25
46506;BME280;32220;49.808;9.968;2023-03-21T04:00:14;99015.31;;;8.05;61.42
46506;BME280;32220;49.808;9.968;2023-03-21T04:02:47;99011.72;;;8.06;61.79
46506;BME280;32220;49.808;9.968;2023-03-21T04:05:19;99012.50;;;8.08;61.58
46506;BME280;32220;49.808;9.968;2023-03-21T04:07:48;99009.59;;;8.14;61.93
46506;BME280;32220;49.808;9.968;2023-03-21T04:10:19;98964.94;;;7.92;61.82
46506;BME280;32220;49.808;9.968;2023-03-21T04:12:48;98997.00;;;8.19;62.61
46506;BME280;32220;49.808;9.968;2023-03-21T04:15:38;99003.69;;;8.26;62.56
46506;BME280;32220;49.808;9.968;2023-03-21T04:18:13;98978.09;;;8.11;62.59
46506;BME280;32220;49.808;9.968;2023-03-21T04:20:40;99002.84;;;8.26;63.12
46506;BME280;32220;49.808;9.968;2023-03-21T04:23:10;98993.38;;;8.22;63.57
46506;BME280;32220;49.808;9.968;2023-03-21T04:25:44;99001.06;;;8.26;62.96
46506;BME280;32220;49.808;9.968;2023-03-21T04:28:12;98996.53;;;8.28;62.78
46506;BME280;32220;49.808;9.968;2023-03-21T04:30:47;98995.53;;;8.31;62.60
46506;BME280;32220;49.808;9.968;2023-03-21T04:33:19;98996.25;;;8.35;62.38
46506;BME280;32220;49.808;9.968;2023-03-21T04:35:54;99004.88;;;8.38;62.44
46506;BME280;32220;49.808;9.968;2023-03-21T04:38:24;99003.84;;;8.41;62.35
46506;BME280;32220;49.808;9.968;2023-03-21T04:40:59;99005.19;;;8.49;62.27
46506;BME280;32220;49.808;9.968;2023-03-21T04:43:29;98999.28;;;8.44;62.30
46506;BME280;32220;49.808;9.968;2023-03-21T04:45:57;99010.84;;;8.59;62.12
46506;BME280;32220;49.808;9.968;2023-03-21T04:48:25;99010.69;;;8.62;62.33
46506;BME280;32220;49.808;9.968;2023-03-21T04:50:53;99010.34;;;8.68;61.97
46506;BME280;32220;49.808;9.968;2023-03-21T04:53:21;99004.91;;;8.71;62.13
46506;BME280;32220;49.808;9.968;2023-03-21T04:55:49;98951.00;;;8.42;62.21
46506;BME280;32220;49.808;9.968;2023-03-21T04:58:18;99000.19;;;8.78;62.00
46506;BME280;32220;49.808;9.968;2023-03-21T05:00:47;99005.28;;;8.81;61.83
46506;BME280;32220;49.808;9.968;2023-03-21T05:03:15;99001.69;;;8.82;61.78
46506;BME280;32220;49.808;9.968;2023-03-21T05:05:45;99003.34;;;8.84;61.75
46506;BME280;32220;49.808;9.968;2023-03-21T05:08:13;98988.91;;;8.74;61.84
46506;BME280;32220;49.808;9.968;2023-03-21T05:10:42;99004.97;;;8.87;61.77
46506;BME280;32220;49.808;9.968;2023-03-21T05:13:11;99014.50;;;8.89;62.06
46506;BME280;32220;49.808;9.968;2023-03-21T05:15:40;99008.28;;;8.90;61.84
46506;BME280;32220;49.808;9.968;2023-03-21T05:18:08;98996.34;;;8.83;61.89
46506;BME280;32220;49.808;9.968;2023-03-21T05:20:47;99000.97;;;8.95;61.80
46506;BME280;32220;49.808;9.968;2023-03-21T05:23:20;99002.69;;;8.96;62.01
46506;BME280;32220;49.808;9.968;2023-03-21T05:25:48;98991.34;;;8.94;62.29
46506;BME280;32220;49.808;9.968;2023-03-21T05:28:22;98998.16;;;8.98;61.93
46506;BME280;32220;49.808;9.968;2023-03-21T05:30:59;99002.44;;;9.01;62.16
46506;BME280;32220;49.808;9.968;2023-03-21T05:33:28;98993.66;;;9.00;62.53
46506;BME280;32220;49.808;9.968;2023-03-21T05:35:56;98982.31;;;8.98;62.69
46506;BME280;32220;49.808;9.968;2023-03-21T05:38:28;98991.75;;;9.02;62.48
46506;BME280;32220;49.808;9.968;2023-03-21T05:40:56;98998.44;;;9.10;62.99
46506;BME280;32220;49.808;9.968;2023-03-21T05:43:24;98992.06;;;9.14;62.45
46506;BME280;32220;49.808;9.968;2023-03-21T05:45:52;98992.72;;;9.17;62.43
46506;BME280;32220;49.808;9.968;2023-03-21T05:48:22;98997.84;;;9.20;62.77
46506;BME280;32220;49.808;9.968;2023-03-21T05:51:13;98996.91;;;9.21;62.58
46506;BME280;32220;49.808;9.968;2023-03-21T05:53:41;98994.28;;;9.21;62.48
46506;BME280;32220;49.808;9.968;2023-03-21T05:56:10;98997.00;;;9.20;62.55
46506;BME280;32220;49.808;9.968;2023-03-21T05:58:49;99002.28;;;9.20;62.84
46506;BME280;32220;49.808;9.968;2023-03-21T06:01:18;98989.50;;;9.12;63.01
46506;BME280;32220;49.808;9.968;2023-03-21T06:03:55;98978.56;;;9.02;63.23
46506;BME280;32220;49.808;9.968;2023-03-21T06:06:26;98995.28;;;9.19;63.01
46506;BME280;32220;49.808;9.968;2023-03-21T06:08:56;99007.91;;;9.29;63.00
46506;BME280;32220;49.808;9.968;2023-03-21T06:11:26;98993.84;;;9.29;62.80
46506;BME280;32220;49.808;9.968;2023-03-21T06:14:24;98995.66;;;9.44;63.54
46506;BME280;32220;49.808;9.968;2023-03-21T06:17:10;99002.13;;;9.54;62.95
46506;BME280;32220;49.808;9.968;2023-03-21T06:19:47;98993.78;;;9.62;62.62
46506;BME280;32220;49.808;9.968;2023-03-21T06:22:23;99001.78;;;9.76;62.76
46506;BME280;32220;49.808;9.968;2023-03-21T06:24:51;98945.00;;;9.52;62.56
46506;BME280;32220;49.808;9.968;2023-03-21T06:27:19;98992.31;;;9.88;62.95
46506;BME280;32220;49.808;9.968;2023-03-21T06:29:53;99003.13;;;9.99;62.65
46506;BME280;32220;49.808;9.968;2023-03-21T06:32:22;98998.59;;;10.01;62.58
46506;BME280;32220;49.808;9.968;2023-03-21T06:34:56;99014.34;;;10.02;63.03
46506;BME280;32220;49.808;9.968;2023-03-21T06:37:24;99004.13;;;9.96;62.88
46506;BME280;32220;49.808;9.968;2023-03-21T06:39:53;99022.19;;;10.04;63.05
46506;BME280;32220;49.808;9.968;2023-03-21T06:42:21;99015.03;;;10.06;63.06
46506;BME280;32220;49.808;9.968;2023-03-21T06:44:51;98992.69;;;9.96;62.87
46506;BME280;32220;49.808;9.968;2023-03-21T06:47:20;99005.31;;;10.06;62.82
46506;BME280;32220;49.808;9.968;2023-03-21T06:49:49;99009.56;;;10.09;62.68
46506;BME280;32220;49.808;9.968;2023-03-21T06:52:18;99006.84;;;10.11;62.78
46506;BME280;32220;49.808;9.968;2023-03-21T06:54:46;99015.34;;;10.16;62.68
46506;BME280;32220;49.808;9.968;2023-03-21T06:57:15;99014.19;;;10.21;62.53
46506;BME280;32220;49.808;9.968;2023-03-21T06:59:47;99007.13;;;10.36;62.71
46506;BME280;32220;49.808;9.968;2023-03-21T07:02:20;99016.50;;;10.86;62.17
46506;BME280;32220;49.808;9.968;2023-03-21T07:05:03;99029.03;;;11.39;60.89
46506;BME280;32220;49.808;9.968;2023-03-21T07:07:33;99030.84;;;12.20;60.34
46506;BME280;32220;49.808;9.968;2023-03-21T07:10:02;99037.44;;;13.05;58.38
46506;BME280;32220;49.808;9.968;2023-03-21T07:12:35;99043.06;;;14.12;55.92
46506;BME280;32220;49.808;9.968;2023-03-21T07:15:12;99030.66;;;15.82;50.56
46506;BME280;32220;49.808;9.968;2023-03-21T07:17:42;99095.72;;;18.21;45.83
46506;BME280;32220;49.808;9.968;2023-03-21T07:20:10;99113.72;;;20.11;42.63
46506;BME280;32220;49.808;9.968;2023-03-21T07:22:40;99130.44;;;21.90;39.33
46506;BME280;32220;49.808;9.968;2023-03-21T07:25:09;99138.06;;;23.44;36.50
46506;BME280;32220;49.808;9.968;2023-03-21T07:27:40;99124.31;;;24.87;34.89
46506;BME280;32220;49.808;9.968;2023-03-21T07:30:09;99163.72;;;26.25;31.79
46506;BME280;32220;49.808;9.968;2023-03-21T07:32:37;99167.44;;;27.25;30.50
46506;BME280;32220;49.808;9.968;2023-03-21T07:35:06;99179.13;;;28.24;28.72
46506;BME280;32220;49.808;9.968;2023-03-21T07:37:35;99172.72;;;28.92;27.63
46506;BME280;32220;49.808;9.968;2023-03-21T07:40:06;99171.59;;;29.54;27.75
46506;BME280;32220;49.808;9.968;2023-03-21T07:42:36;99171.97;;;29.45;27.17
46506;BME280;32220;49.808;9.968;2023-03-21T07:45:05;99172.78;;;29.32;26.92
46506;BME280;32220;49.808;9.968;2023-03-21T07:47:33;99173.22;;;30.08;26.38
46506;BME280;32220;49.808;9.968;2023-03-21T07:50:02;99177.41;;;31.20;24.81
46506;BME280;32220;49.808;9.968;2023-03-21T07:52:30;99177.38;;;30.17;24.97
46506;BME280;32220;49.808;9.968;2023-03-21T07:54:58;99161.09;;;28.23;25.86
46506;BME280;32220;49.808;9.968;2023-03-21T07:57:27;99160.56;;;26.72;26.98
46506;BME280;32220;49.808;9.968;2023-03-21T07:59:55;99154.81;;;25.72;28.46
46506;BME280;32220;49.808;9.968;2023-03-21T08:02:23;99133.09;;;24.89;30.33
46506;BME280;32220;49.808;9.968;2023-03-21T08:04:51;99131.28;;;24.19;30.69
46506;BME280;32220;49.808;9.968;2023-03-21T08:07:19;99131.97;;;23.58;31.45
46506;BME280;32220;49.808;9.968;2023-03-21T08:09:47;99079.97;;;22.75;32.68
46506;BME280;32220;49.808;9.968;2023-03-21T08:12:15;99103.66;;;22.39;33.40
46506;BME280;32220;49.808;9.968;2023-03-21T08:14:44;99106.50;;;21.87;33.94
46506;BME280;32220;49.808;9.968;2023-03-21T08:17:12;99119.94;;;21.53;34.54
46506;BME280;32220;49.808;9.968;2023-03-21T08:19:40;99098.19;;;21.21;35.31
46506;BME280;32220;49.808;9.968;2023-03-21T08:22:08;99096.72;;;21.26;35.74
46506;BME280;32220;49.808;9.968;2023-03-21T08:24:36;99098.66;;;22.02;34.72
46506;BME280;32220;49.808;9.968;2023-03-21T08:27:03;99110.34;;;22.77;34.14
46506;BME280;32220;49.808;9.968;2023-03-21T08:29:31;99098.72;;;22.92;34.26
46506;BME280;32220;49.808;9.968;2023-03-21T08:32:00;99101.25;;;22.94;33.04
46506;BME280;32220;49.808;9.968;2023-03-21T08:34:28;99090.47;;;22.86;33.23
46506;BME280;32220;49.808;9.968;2023-03-21T08:36:56;99109.81;;;22.73;32.89
46506;BME280;32220;49.808;9.968;2023-03-21T08:39:23;99077.53;;;22.39;33.27
46506;BME280;32220;49.808;9.968;2023-03-21T08:41:51;99106.56;;;22.37;33.88
46506;BME280;32220;49.808;9.968;2023-03-21T08:44:19;99103.50;;;22.40;34.18
46506;BME280;32220;49.808;9.968;2023-03-21T08:46:47;99099.16;;;22.47;34.19
46506;BME280;32220;49.808;9.968;2023-03-21T08:49:16;99100.91;;;22.81;33.54
46506;BME280;32220;49.808;9.968;2023-03-21T08:51:44;99103.25;;;23.24;33.08
46506;BME280;32220;49.808;9.968;2023-03-21T08:54:18;99104.31;;;24.88;31.46
46506;BME280;32220;49.808;9.968;2023-03-21T08:56:47;99106.59;;;27.33;28.90
46506;BME280;32220;49.808;9.968;2023-03-21T08:59:15;99137.50;;;29.83;26.30
46506;BME280;32220;49.808;9.968;2023-03-21T09:01:42;99133.66;;;32.31;24.49
46506;BME280;32220;49.808;9.968;2023-03-21T09:04:10;99121.41;;;34.51;22.76
46506;BME280;32220;49.808;9.968;2023-03-21T09:06:40;99158.38;;;34.55;21.06
46506;BME280;32220;49.808;9.968;2023-03-21T09:09:13;99141.09;;;33.62;21.71
46506;BME280;32220;49.808;9.968;2023-03-21T09:11:41;99121.19;;;32.65;22.42
46506;BME280;32220;49.808;9.968;2023-03-21T09:14:09;99140.44;;;32.28;21.86
46506;BME280;32220;49.808;9.968;2023-03-21T09:16:37;99135.00;;;32.40;22.04
46506;BME280;32220;49.808;9.968;2023-03-21T09:19:04;99101.19;;;32.46;21.79
46506;BME280;32220;49.808;9.968;2023-03-21T09:21:33;99124.38;;;32.50;22.11
46506;BME280;32220;49.808;9.968;2023-03-21T09:24:04;99133.88;;;33.26;21.33
46506;BME280;32220;49.808;9.968;2023-03-21T09:26:32;99128.09;;;34.55;20.46
46506;BME280;32220;49.808;9.968;2023-03-21T09:29:00;99135.81;;;35.10;19.67
46506;BME280;32220;49.808;9.968;2023-03-21T09:31:31;99128.81;;;35.19;19.39
46506;BME280;32220;49.808;9.968;2023-03-21T09:33:59;99133.06;;;34.82;19.11
46506;BME280;32220;49.808;9.968;2023-03-21T09:36:27;99129.38;;;34.24;19.60
46506;BME280;32220;49.808;9.968;2023-03-21T09:38:55;99115.63;;;34.13;20.52
46506;BME280;32220;49.808;9.968;2023-03-21T09:41:33;99109.44;;;35.14;19.59
46506;BME280;32220;49.808;9.968;2023-03-21T09:44:13;99123.81;;;35.50;19.21
46506;BME280;32220;49.808;9.968;2023-03-21T09:46:49;99123.41;;;35.41;19.36
46506;BME280;32220;49.808;9.968;2023-03-21T09:49:22;99110.91;;;35.34;19.01
46506;BME280;32220;49.808;9.968;2023-03-21T09:51:58;99128.00;;;34.90;18.98
46506;BME280;32220;49.808;9.968;2023-03-21T09:54:32;99130.00;;;34.95;18.92
46506;BME280;32220;49.808;9.968;2023-03-21T09:57:10;99123.72;;;34.83;19.10
46506;BME280;32220;49.808;9.968;2023-03-21T09:59:41;99115.75;;;34.70;19.26
46506;BME280;32220;49.808;9.968;2023-03-21T10:02:20;99114.41;;;35.01;18.96
46506;BME280;32220;49.808;9.968;2023-03-21T10:04:58;99109.53;;;35.19;18.76
46506;BME280;32220;49.808;9.968;2023-03-21T10:07:28;99101.69;;;35.11;19.13
46506;BME280;32220;49.808;9.968;2023-03-21T10:10:00;99113.09;;;36.04;18.01
46506;BME280;32220;49.808;9.968;2023-03-21T10:12:31;99116.47;;;37.25;16.57
46506;BME280;32220;49.808;9.968;2023-03-21T10:15:00;99108.63;;;38.23;16.94
46506;BME280;32220;49.808;9.968;2023-03-21T10:17:33;99086.03;;;37.89;16.66
46506;BME280;32220;49.808;9.968;2023-03-21T10:20:12;99094.84;;;38.28;16.32
46506;BME280;32220;49.808;9.968;2023-03-21T10:22:41;99091.72;;;38.92;15.13
46506;BME280;32220;49.808;9.968;2023-03-21T10:25:15;99088.44;;;39.35;15.62
46506;BME280;32220;49.808;9.968;2023-03-21T10:27:45;99093.59;;;40.28;15.05
46506;BME280;32220;49.808;9.968;2023-03-21T10:30:23;99095.22;;;41.67;13.91
46506;BME280;32220;49.808;9.968;2023-03-21T10:32:55;99078.75;;;43.03;13.97
46506;BME280;32220;49.808;9.968;2023-03-21T10:35:24;99089.03;;;43.59;12.70
46506;BME280;32220;49.808;9.968;2023-03-21T10:37:51;99084.28;;;42.89;13.57
46506;BME280;32220;49.808;9.968;2023-03-21T10:40:19;99067.50;;;41.80;13.75
46506;BME280;32220;49.808;9.968;2023-03-21T10:42:49;99066.28;;;41.34;14.03
46506;BME280;32220;49.808;9.968;2023-03-21T10:45:18;99062.13;;;41.31;14.49
46506;BME280;32220;49.808;9.968;2023-03-21T10:47:51;99047.75;;;41.24;14.55
46506;BME280;32220;49.808;9.968;2023-03-21T10:50:21;99056.00;;;40.51;14.81
46506;BME280;32220;49.808;9.968;2023-03-21T10:52:55;99041.03;;;39.67;15.36
46506;BME280;32220;49.808;9.968;2023-03-21T10:55:27;99038.34;;;40.27;15.17
46506;BME280;32220;49.808;9.968;2023-03-21T10:58:02;99051.28;;;40.96;15.04
46506;BME280;32220;49.808;9.968;2023-03-21T11:00:35;99043.03;;;41.24;14.46
46506;BME280;32220;49.808;9.968;2023-03-21T11:03:04;99036.06;;;41.27;14.75
46506;BME280;32220;49.808;9.968;2023-03-21T11:05:35;99049.56;;;41.05;14.57
46506;BME280;32220;49.808;9.968;2023-03-21T11:08:10;99047.63;;;40.61;14.93
46506;BME280;32220;49.808;9.968;2023-03-21T11:10:50;99044.59;;;39.93;15.48
46506;BME280;32220;49.808;9.968;2023-03-21T11:13:24;99028.88;;;39.12;15.82
46506;BME280;32220;49.808;9.968;2023-03-21T11:15:55;99036.44;;;38.24;16.06
46506;BME280;32220;49.808;9.968;2023-03-21T11:18:26;99022.72;;;37.13;16.99
46506;BME280;32220;49.808;9.968;2023-03-21T11:21:02;99023.38;;;36.18;17.57
46506;BME280;32220;49.808;9.968;2023-03-21T11:23:33;99014.13;;;35.13;18.60
46506;BME280;32220;49.808;9.968;2023-03-21T11:26:08;99012.38;;;34.05;19.17
46506;BME280;32220;49.808;9.968;2023-03-21T11:28:40;98997.19;;;33.28;19.79
46506;BME280;32220;49.808;9.968;2023-03-21T11:31:10;98988.94;;;32.51;20.04
46506;BME280;32220;49.808;9.968;2023-03-21T11:33:40;98989.88;;;31.78;20.71
46506;BME280;32220;49.808;9.968;2023-03-21T11:36:25;98966.88;;;31.25;21.07
46506;BME280;32220;49.808;9.968;2023-03-21T11:38:57;98971.63;;;31.11;21.99
46506;BME280;32220;49.808;9.968;2023-03-21T11:41:29;98964.19;;;30.93;22.29
46506;BME280;32220;49.808;9.968;2023-03-21T11:44:00;98945.59;;;30.46;22.08
46506;BME280;32220;49.808;9.968;2023-03-21T11:46:29;98955.09;;;30.12;22.75
46506;BME280;32220;49.808;9.968;2023-03-21T11:48:58;98948.53;;;29.75;23.39
46506;BME280;32220;49.808;9.968;2023-03-21T11:51:32;98950.09;;;29.44;23.66
46506;BME280;32220;49.808;9.968;2023-03-21T11:54:09;98941.69;;;29.33;24.00
46506;BME280;32220;49.808;9.968;2023-03-21T11:56:41;98942.78;;;29.18;24.08
46506;BME280;32220;49.808;9.968;2023-03-21T11:59:23;98935.91;;;28.89;24.32
46506;BME280;32220;49.808;9.968;2023-03-21T12:02:04;98935.53;;;28.79;24.38
46506;BME280;32220;49.808;9.968;2023-03-21T12:04:40;98931.91;;;28.72;24.91
46506;BME280;32220;49.808;9.968;2023-03-21T12:07:26;98930.66;;;28.68;24.48
46506;BME280;32220;49.808;9.968;2023-03-21T12:10:10;98924.38;;;28.61;24.64
46506;BME280;32220;49.808;9.968;2023-03-21T12:12:49;98903.59;;;28.47;25.32
46506;BME280;32220;49.808;9.968;2023-03-21T12:15:27;98913.25;;;28.36;24.72
46506;BME280;32220;49.808;9.968;2023-03-21T12:18:03;98903.81;;;28.32;24.93
46506;BME280;32220;49.808;9.968;2023-03-21T12:20:38;98909.25;;;28.45;24.94
46506;BME280;32220;49.808;9.968;2023-03-21T12:23:40;98896.69;;;29.04;24.89
46506;BME280;32220;49.808;9.968;2023-03-21T12:26:18;98902.19;;;29.93;23.91
46506;BME280;32220;49.808;9.968;2023-03-21T12:28:58;98903.31;;;30.23;24.05
46506;BME280;32220;49.808;9.968;2023-03-21T12:31:42;98905.22;;;30.48;23.49
46506;BME280;32220;49.808;9.968;2023-03-21T12:34:23;98897.59;;;30.81;23.19
46506;BME280;32220;49.808;9.968;2023-03-21T12:37:06;98905.66;;;30.76;22.49
46506;BME280;32220;49.808;9.968;2023-03-21T12:39:39;98898.81;;;30.35;22.76
46506;BME280;32220;49.808;9.968;2023-03-21T12:42:36;98885.91;;;29.80;23.79
46506;BME280;32220;49.808;9.968;2023-03-21T12:45:14;98889.03;;;29.32;24.27
46506;BME280;32220;49.808;9.968;2023-03-21T12:47:48;98873.22;;;28.89;24.90
46506;BME280;32220;49.808;9.968;2023-03-21T12:50:21;98864.84;;;28.38;25.60
46506;BME280;32220;49.808;9.968;2023-03-21T12:52:53;98855.13;;;27.96;25.76
46506;BME280;32220;49.808;9.968;2023-03-21T12:55:24;98861.34;;;27.64;26.09
46506;BME280;32220;49.808;9.968;2023-03-21T12:57:57;98849.94;;;27.40;26.92
46506;BME280;32220;49.808;9.968;2023-03-21T13:00:33;98851.50;;;27.15;27.14
46506;BME280;32220;49.808;9.968;2023-03-21T13:03:09;98845.63;;;26.77;27.37
46506;BME280;32220;49.808;9.968;2023-03-21T13:05:39;98862.38;;;26.53;26.98
46506;BME280;32220;49.808;9.968;2023-03-21T13:08:10;98822.28;;;26.05;27.73
46506;BME280;32220;49.808;9.968;2023-03-21T13:10:44;98841.28;;;26.05;28.10
46506;BME280;32220;49.808;9.968;2023-03-21T13:13:18;98845.56;;;25.93;27.91
46506;BME280;32220;49.808;9.968;2023-03-21T13:16:08;98830.31;;;25.71;27.78
46506;BME280;32220;49.808;9.968;2023-03-21T13:18:46;98802.22;;;25.42;29.06
46506;BME280;32220;49.808;9.968;2023-03-21T13:21:19;98818.53;;;25.28;29.12
46506;BME280;32220;49.808;9.968;2023-03-21T13:23:58;98794.94;;;25.07;29.19
46506;BME280;32220;49.808;9.968;2023-03-21T13:26:33;98802.88;;;24.94;29.36
46506;BME280;32220;49.808;9.968;2023-03-21T13:29:12;98793.34;;;24.83;30.13
46506;BME280;32220;49.808;9.968;2023-03-21T13:31:47;98810.81;;;24.81;29.90
46506;BME280;32220;49.808;9.968;2023-03-21T13:34:20;98783.63;;;24.59;29.84
46506;BME280;32220;49.808;9.968;2023-03-21T13:36:50;98804.66;;;24.72;29.95